createdAt,value
2023-05-17T00:04:15.433Z,11.53
2023-05-17T00:09:22.804Z,11.53
2023-05-17T00:14:26.864Z,11.51
2023-05-17T00:19:31.254Z,11.49
2023-05-17T00:24:33.497Z,11.46
2023-05-17T00:29:35.709Z,11.43
2023-05-17T00:34:41.699Z,11.41
2023-05-17T00:39:46.052Z,11.40
2023-05-17T00:44:53.050Z,11.39
2023-05-17T00:49:57.550Z,11.38
2023-05-17T00:55:06.502Z,11.38
2023-05-17T01:00:09.114Z,11.36
2023-05-17T01:05:15.794Z,11.36
2023-05-17T01:10:21.469Z,11.36
2023-05-17T01:15:28.118Z,11.35
2023-05-17T01:20:38.972Z,11.33
2023-05-17T01:26:13.420Z,11.31
2023-05-17T01:31:19.190Z,11.29
2023-05-17T01:36:26.447Z,11.28
2023-05-17T01:41:43.860Z,11.26
2023-05-17T01:47:16.689Z,11.21
2023-05-17T01:52:35.896Z,11.19
2023-05-17T01:57:44.983Z,11.18
2023-05-17T02:02:50.107Z,11.17
2023-05-17T02:07:54.326Z,11.12
2023-05-17T02:13:02.450Z,11.06
2023-05-17T02:18:04.602Z,10.98
2023-05-17T02:23:06.911Z,10.91
2023-05-17T02:28:10.368Z,10.85
2023-05-17T02:33:17.801Z,10.80
2023-05-17T02:38:28.522Z,10.77
2023-05-17T02:43:34.054Z,10.74
2023-05-17T02:48:36.264Z,10.71
2023-05-17T02:53:41.797Z,10.68
2023-05-17T02:58:49.061Z,10.63
2023-05-17T03:03:56.897Z,10.55
2023-05-17T03:09:03.149Z,10.49
2023-05-17T03:14:12.419Z,10.41
2023-05-17T03:19:14.710Z,10.34
2023-05-17T03:24:22.094Z,10.29
2023-05-17T03:29:25.752Z,10.22
2023-05-17T03:34:27.744Z,10.15
2023-05-17T03:39:32.145Z,10.09
2023-05-17T03:44:34.763Z,10.01
2023-05-17T03:49:41.797Z,9.95
2023-05-17T03:54:52.771Z,9.89
2023-05-17T03:59:55.323Z,9.85
2023-05-17T04:04:57.899Z,9.81
2023-05-17T04:10:02.886Z,9.79
2023-05-17T04:15:19.176Z,9.74
2023-05-17T04:20:24.672Z,9.72
2023-05-17T04:25:28.020Z,9.68
2023-05-17T04:30:30.741Z,9.64
2023-05-17T04:35:39.008Z,9.57
2023-05-17T04:40:42.711Z,9.51
2023-05-17T04:45:47.979Z,9.45
2023-05-17T04:50:50.993Z,9.40
2023-05-17T04:55:53.211Z,9.36
2023-05-17T05:00:56.751Z,9.34
2023-05-17T05:05:59.557Z,9.32
2023-05-17T05:11:02.946Z,9.28
2023-05-17T05:16:06.423Z,9.25
2023-05-17T05:21:11.444Z,9.24
2023-05-17T05:26:14.513Z,9.23
2023-05-17T05:31:17.441Z,9.22
2023-05-17T05:36:29.128Z,9.21
2023-05-17T05:41:38.698Z,9.20
2023-05-17T05:46:41.665Z,9.17
2023-05-17T05:52:05.164Z,9.11
2023-05-17T05:57:09.629Z,9.06
2023-05-17T06:02:12.328Z,9.00
2023-05-17T06:07:16.044Z,8.96
2023-05-17T06:12:23.482Z,8.92
2023-05-17T06:17:25.609Z,8.89
2023-05-17T06:22:27.889Z,8.87
2023-05-17T06:27:33.337Z,8.86
2023-05-17T06:32:35.903Z,8.85
2023-05-17T06:37:38.908Z,8.85
2023-05-17T06:42:41.534Z,8.83
2023-05-17T06:47:46.857Z,8.84
2023-05-17T06:52:49.284Z,8.86
2023-05-17T06:57:53.372Z,8.88
2023-05-17T07:02:55.640Z,8.90
2023-05-17T07:08:00.976Z,8.94
2023-05-17T07:13:03.642Z,8.98
2023-05-17T07:18:05.731Z,9.03
2023-05-17T07:23:07.809Z,9.09
2023-05-17T07:28:12.063Z,9.13
2023-05-17T07:33:14.222Z,9.16
2023-05-17T07:38:27.589Z,9.17
2023-05-17T07:43:30.573Z,9.15
2023-05-17T07:48:37.491Z,9.15
2023-05-17T07:53:39.622Z,9.13
2023-05-17T07:58:41.730Z,9.10
2023-05-17T08:03:48.314Z,9.07
2023-05-17T08:08:50.956Z,9.08
2023-05-17T08:13:56.901Z,9.14
2023-05-17T08:19:02.063Z,9.19
2023-05-17T08:24:07.135Z,9.20
2023-05-17T08:29:09.955Z,9.21
2023-05-17T08:34:15.455Z,9.23
2023-05-17T08:39:23.311Z,9.28
2023-05-17T08:44:28.430Z,9.31
2023-05-17T08:49:34.300Z,9.33
2023-05-17T08:54:37.533Z,9.41
2023-05-17T08:59:45.410Z,9.49
2023-05-17T09:04:55.693Z,9.51
2023-05-17T09:09:58.518Z,9.56
2023-05-17T09:15:15.065Z,9.61
2023-05-17T09:20:35.986Z,9.62
2023-05-17T09:25:47.256Z,9.57
2023-05-17T09:30:50.073Z,9.48
2023-05-17T09:35:53.125Z,9.44
2023-05-17T09:40:56.978Z,9.43
2023-05-17T09:45:59.404Z,9.43
2023-05-17T09:51:02.137Z,9.42
2023-05-17T09:56:05.820Z,9.43
2023-05-17T10:01:09.889Z,9.41
2023-05-17T10:06:27.718Z,9.39
2023-05-17T10:11:37.744Z,9.36
2023-05-17T10:16:40.076Z,9.34
2023-05-17T10:21:44.215Z,9.33
2023-05-17T10:26:46.522Z,9.33
2023-05-17T10:31:52.733Z,9.33
2023-05-17T10:36:55.661Z,9.35
2023-05-17T10:42:14.228Z,9.37
2023-05-17T10:47:18.054Z,9.34
2023-05-17T10:52:24.034Z,9.29
2023-05-17T10:57:49.666Z,9.20
2023-05-17T11:03:17.209Z,9.15
2023-05-17T11:08:24.535Z,9.12
2023-05-17T11:13:29.940Z,9.08
2023-05-17T11:18:52.695Z,9.08
2023-05-17T11:23:58.784Z,9.09
2023-05-17T11:29:15.145Z,9.06
2023-05-17T11:34:25.088Z,9.05
2023-05-17T11:39:27.545Z,9.06
2023-05-17T11:44:32.426Z,9.08
2023-05-17T11:49:37.769Z,9.10
2023-05-17T11:54:42.895Z,9.07
2023-05-17T11:59:46.315Z,9.04
2023-05-17T12:04:48.591Z,9.02
2023-05-17T12:09:56.748Z,9.03
2023-05-17T12:15:01.543Z,8.99
2023-05-17T12:20:10.440Z,8.92
2023-05-17T12:25:25.394Z,8.88
2023-05-17T12:30:28.029Z,8.88
2023-05-17T12:35:31.850Z,8.91
2023-05-17T12:40:42.674Z,8.95
2023-05-17T12:45:47.869Z,8.97
2023-05-17T12:50:55.781Z,8.97
2023-05-17T12:56:00.727Z,8.97
2023-05-17T13:01:10.662Z,8.99
2023-05-17T13:06:13.236Z,9.02
2023-05-17T13:11:19.090Z,9.04
2023-05-17T13:16:30.005Z,9.08
2023-05-17T13:21:34.874Z,9.07
2023-05-17T13:26:37.357Z,9.05
2023-05-17T13:31:42.683Z,9.03
2023-05-17T13:36:48.068Z,9.01
2023-05-17T13:41:50.283Z,9.00
2023-05-17T13:46:55.368Z,8.98
2023-05-17T13:51:57.773Z,8.96
2023-05-17T13:56:59.743Z,8.96
2023-05-17T14:02:04.774Z,8.95
2023-05-17T14:07:07.219Z,8.94
2023-05-17T14:12:10.140Z,8.95
2023-05-17T14:17:12.582Z,8.95
2023-05-17T14:22:14.914Z,8.97
2023-05-17T14:27:17.558Z,9.01
2023-05-17T14:32:19.624Z,9.04
2023-05-17T14:37:22.059Z,9.11
2023-05-17T14:42:24.559Z,9.16
2023-05-17T14:47:26.916Z,9.23
2023-05-17T14:52:29.353Z,9.26
2023-05-17T14:57:31.725Z,9.29
2023-05-17T15:02:33.801Z,9.28
2023-05-17T15:07:36.227Z,9.27
2023-05-17T15:12:39.123Z,9.27
2023-05-17T15:17:41.756Z,9.28
2023-05-17T15:22:44.529Z,9.33
2023-05-17T15:27:49.691Z,9.36
2023-05-17T15:32:52.080Z,9.40
2023-05-17T15:37:57.912Z,9.46
2023-05-17T15:43:00.038Z,9.49
2023-05-17T15:48:02.524Z,9.52
2023-05-17T15:53:05.300Z,9.53
2023-05-17T15:58:09.506Z,9.56
2023-05-17T16:03:12.540Z,9.58
2023-05-17T16:08:14.517Z,9.63
2023-05-17T16:13:16.810Z,9.67
2023-05-17T16:18:19.470Z,9.69
2023-05-17T16:23:22.506Z,9.67
2023-05-17T16:28:25.229Z,9.66
2023-05-17T16:33:27.585Z,9.69
2023-05-17T16:38:30.011Z,9.71
2023-05-17T16:43:32.139Z,9.72
2023-05-17T16:48:34.072Z,9.73
2023-05-17T16:53:36.455Z,9.74
2023-05-17T16:58:39.226Z,9.74
2023-05-17T17:03:41.575Z,9.72
2023-05-17T17:08:43.493Z,9.71
2023-05-17T17:13:46.097Z,9.71
2023-05-17T17:18:49.662Z,9.71
2023-05-17T17:23:52.282Z,9.72
2023-05-17T17:28:54.502Z,9.72
2023-05-17T17:33:56.652Z,9.71
2023-05-17T17:38:58.532Z,9.68
2023-05-17T17:44:01.533Z,9.67
2023-05-17T17:49:03.613Z,9.66
2023-05-17T17:54:07.357Z,9.64
2023-05-17T17:59:09.255Z,9.62
2023-05-17T18:04:11.329Z,9.59
2023-05-17T18:09:13.858Z,9.56
2023-05-17T18:14:15.823Z,9.52
2023-05-17T18:19:17.859Z,9.45
2023-05-17T18:24:20.600Z,9.40
2023-05-17T18:29:22.470Z,9.37
2023-05-17T18:34:25.672Z,9.34
2023-05-17T18:39:31.865Z,9.30
2023-05-17T18:44:35.325Z,9.26
2023-05-17T18:49:41.240Z,9.23
2023-05-17T18:54:43.951Z,9.20
2023-05-17T18:59:46.133Z,9.16
2023-05-17T19:04:48.434Z,9.14
2023-05-17T19:09:51.747Z,9.12
2023-05-17T19:14:53.695Z,9.09
2023-05-17T19:19:55.933Z,9.06
2023-05-17T19:24:57.793Z,9.03
2023-05-17T19:29:59.788Z,9.01
2023-05-17T19:35:02.310Z,8.99
2023-05-17T19:40:07.900Z,8.96
2023-05-17T19:45:11.702Z,8.93
2023-05-17T19:50:15.264Z,8.91
2023-05-17T19:55:22.207Z,8.89
2023-05-17T20:00:24.707Z,8.88
2023-05-17T20:05:27.965Z,8.84
2023-05-17T20:10:33.718Z,8.82
2023-05-17T20:15:43.990Z,8.80
2023-05-17T20:20:46.162Z,8.77
2023-05-17T20:25:49.991Z,8.76
2023-05-17T20:30:52.145Z,8.76
2023-05-17T20:35:59.346Z,8.72
2023-05-17T20:41:04.043Z,8.70
2023-05-17T20:46:09.833Z,8.69
2023-05-17T20:51:12.614Z,8.68
2023-05-17T20:56:17.790Z,8.66
2023-05-17T21:01:19.812Z,8.66
2023-05-17T21:06:30.261Z,8.65
2023-05-17T21:11:38.497Z,8.66
2023-05-17T21:16:40.851Z,8.65
2023-05-17T21:21:50.748Z,8.62
2023-05-17T21:26:53.310Z,8.60
2023-05-17T21:31:57.147Z,8.58
2023-05-17T21:36:59.590Z,8.57
2023-05-17T21:42:03.454Z,8.54
2023-05-17T21:47:10.647Z,8.52
2023-05-17T21:52:16.715Z,8.52
2023-05-17T21:57:21.151Z,8.51
2023-05-17T22:02:25.806Z,8.48
2023-05-17T22:07:28.653Z,8.46
2023-05-17T22:12:35.063Z,8.45
2023-05-17T22:17:47.810Z,8.43
2023-05-17T22:22:53.934Z,8.42
2023-05-17T22:27:56.045Z,8.41
2023-05-17T22:32:58.137Z,8.40
2023-05-17T22:38:00.451Z,8.40
2023-05-17T22:43:02.676Z,8.39
2023-05-17T22:48:08.232Z,8.39
2023-05-17T22:53:13.977Z,8.40
2023-05-17T22:58:16.274Z,8.39
2023-05-17T23:03:21.015Z,8.38
2023-05-17T23:08:24.311Z,8.36
2023-05-17T23:13:30.593Z,8.35
2023-05-17T23:18:33.263Z,8.33
2023-05-17T23:23:38.243Z,8.32
2023-05-17T23:28:41.392Z,8.31
2023-05-17T23:33:44.065Z,8.31
2023-05-17T23:38:47.861Z,8.29
2023-05-17T23:43:57.211Z,8.28
2023-05-17T23:49:12.867Z,8.28
2023-05-17T23:54:16.065Z,8.27
2023-05-17T23:59:18.925Z,8.26
